sensor_id;sensor_type;location;lat;lon;timestamp;pressure;altitude;pressure_sealevel;temperature;humidity
54924;BME280;40825;52.270;20.984;2022-08-21T00:00:18;100222.56;;;24.52;56.44
54924;BME280;40825;52.270;20.984;2022-08-21T00:00:58;100221.63;;;24.49;56.40
54924;BME280;40825;52.270;20.984;2022-08-21T00:01:24;100222.86;;;24.46;56.45
54924;BME280;40825;52.270;20.984;2022-08-21T00:01:47;100223.55;;;24.48;56.45
54924;BME280;40825;52.270;20.984;2022-08-21T00:02:21;100224.58;;;24.48;56.51
54924;BME280;40825;52.270;20.984;2022-08-21T00:02:48;100226.17;;;24.47;56.44
54924;BME280;40825;52.270;20.984;2022-08-21T00:03:11;100223.59;;;24.44;56.45
54924;BME280;40825;52.270;20.984;2022-08-21T00:03:34;100224.95;;;24.43;56.51
54924;BME280;40825;52.270;20.984;2022-08-21T00:03:55;100225.34;;;24.44;56.56
54924;BME280;40825;52.270;20.984;2022-08-21T00:04:17;100227.23;;;24.46;56.50
54924;BME280;40825;52.270;20.984;2022-08-21T00:04:39;100223.77;;;24.47;56.45
54924;BME280;40825;52.270;20.984;2022-08-21T00:05:00;100224.48;;;24.46;56.60
54924;BME280;40825;52.270;20.984;2022-08-21T00:05:24;100223.17;;;24.46;56.47
54924;BME280;40825;52.270;20.984;2022-08-21T00:05:48;100225.63;;;24.47;56.55
54924;BME280;40825;52.270;20.984;2022-08-21T00:06:11;100227.73;;;24.45;56.53
54924;BME280;40825;52.270;20.984;2022-08-21T00:06:33;100225.61;;;24.44;56.47
54924;BME280;40825;52.270;20.984;2022-08-21T00:06:55;100223.40;;;24.42;56.63
54924;BME280;40825;52.270;20.984;2022-08-21T00:07:18;100224.31;;;24.42;56.50
54924;BME280;40825;52.270;20.984;2022-08-21T00:07:40;100220.57;;;24.41;56.53
54924;BME280;40825;52.270;20.984;2022-08-21T00:08:03;100223.35;;;24.39;56.56
54924;BME280;40825;52.270;20.984;2022-08-21T00:08:24;100222.98;;;24.40;56.59
54924;BME280;40825;52.270;20.984;2022-08-21T00:08:46;100224.06;;;24.39;56.66
54924;BME280;40825;52.270;20.984;2022-08-21T00:09:09;100223.36;;;24.40;56.60
54924;BME280;40825;52.270;20.984;2022-08-21T00:09:31;100223.59;;;24.38;56.67
54924;BME280;40825;52.270;20.984;2022-08-21T00:09:52;100220.88;;;24.37;56.63
54924;BME280;40825;52.270;20.984;2022-08-21T00:10:14;100223.52;;;24.36;56.62
54924;BME280;40825;52.270;20.984;2022-08-21T00:10:36;100227.11;;;24.35;56.73
54924;BME280;40825;52.270;20.984;2022-08-21T00:10:58;100223.84;;;24.35;56.79
54924;BME280;40825;52.270;20.984;2022-08-21T00:11:20;100223.46;;;24.35;56.80
54924;BME280;40825;52.270;20.984;2022-08-21T00:11:41;100221.71;;;24.36;56.86
54924;BME280;40825;52.270;20.984;2022-08-21T00:12:04;100225.79;;;24.37;56.84
54924;BME280;40825;52.270;20.984;2022-08-21T00:12:26;100225.34;;;24.38;56.90
54924;BME280;40825;52.270;20.984;2022-08-21T00:12:48;100222.23;;;24.38;56.98
54924;BME280;40825;52.270;20.984;2022-08-21T00:13:11;100230.40;;;24.39;57.00
54924;BME280;40825;52.270;20.984;2022-08-21T00:13:34;100224.45;;;24.38;57.02
54924;BME280;40825;52.270;20.984;2022-08-21T00:13:56;100222.92;;;24.39;57.00
54924;BME280;40825;52.270;20.984;2022-08-21T00:14:17;100222.72;;;24.38;56.99
54924;BME280;40825;52.270;20.984;2022-08-21T00:14:39;100225.67;;;24.38;56.96
54924;BME280;40825;52.270;20.984;2022-08-21T00:15:04;100227.21;;;24.38;56.90
54924;BME280;40825;52.270;20.984;2022-08-21T00:15:28;100225.86;;;24.36;57.02
54924;BME280;40825;52.270;20.984;2022-08-21T00:15:50;100228.11;;;24.34;56.88
54924;BME280;40825;52.270;20.984;2022-08-21T00:16:12;100229.92;;;24.34;57.05
54924;BME280;40825;52.270;20.984;2022-08-21T00:16:34;100226.20;;;24.34;56.98
54924;BME280;40825;52.270;20.984;2022-08-21T00:16:56;100225.27;;;24.34;57.03
54924;BME280;40825;52.270;20.984;2022-08-21T00:17:18;100231.52;;;24.36;57.06
54924;BME280;40825;52.270;20.984;2022-08-21T00:17:39;100229.99;;;24.37;57.09
54924;BME280;40825;52.270;20.984;2022-08-21T00:18:02;100228.14;;;24.37;57.05
54924;BME280;40825;52.270;20.984;2022-08-21T00:18:24;100227.79;;;24.38;57.01
54924;BME280;40825;52.270;20.984;2022-08-21T00:18:46;100229.86;;;24.39;57.08
54924;BME280;40825;52.270;20.984;2022-08-21T00:19:08;100232.70;;;24.39;57.06
54924;BME280;40825;52.270;20.984;2022-08-21T00:19:30;100229.64;;;24.39;56.99
54924;BME280;40825;52.270;20.984;2022-08-21T00:19:52;100231.23;;;24.38;56.96
54924;BME280;40825;52.270;20.984;2022-08-21T00:20:16;100232.77;;;24.38;56.93
54924;BME280;40825;52.270;20.984;2022-08-21T00:20:41;100231.59;;;24.35;56.95
54924;BME280;40825;52.270;20.984;2022-08-21T00:21:03;100229.77;;;24.33;56.97
54924;BME280;40825;52.270;20.984;2022-08-21T00:21:25;100232.56;;;24.31;56.99
54924;BME280;40825;52.270;20.984;2022-08-21T00:21:47;100234.11;;;24.29;57.13
54924;BME280;40825;52.270;20.984;2022-08-21T00:22:09;100233.74;;;24.28;57.07
54924;BME280;40825;52.270;20.984;2022-08-21T00:22:31;100228.80;;;24.26;57.11
54924;BME280;40825;52.270;20.984;2022-08-21T00:22:53;100235.30;;;24.25;57.15
54924;BME280;40825;52.270;20.984;2022-08-21T00:23:15;100228.20;;;24.25;57.21
54924;BME280;40825;52.270;20.984;2022-08-21T00:23:37;100233.70;;;24.25;57.20
54924;BME280;40825;52.270;20.984;2022-08-21T00:23:58;100234.09;;;24.24;57.15
54924;BME280;40825;52.270;20.984;2022-08-21T00:24:21;100230.29;;;24.23;57.19
54924;BME280;40825;52.270;20.984;2022-08-21T00:24:43;100232.54;;;24.22;57.16
54924;BME280;40825;52.270;20.984;2022-08-21T00:25:06;100231.23;;;24.22;57.37
54924;BME280;40825;52.270;20.984;2022-08-21T00:25:28;100231.46;;;24.20;57.27
54924;BME280;40825;52.270;20.984;2022-08-21T00:25:50;100231.29;;;24.22;57.29
54924;BME280;40825;52.270;20.984;2022-08-21T00:26:14;100228.85;;;24.21;57.34
54924;BME280;40825;52.270;20.984;2022-08-21T00:26:36;100230.25;;;24.20;57.40
54924;BME280;40825;52.270;20.984;2022-08-21T00:26:57;100226.89;;;24.21;57.37
54924;BME280;40825;52.270;20.984;2022-08-21T00:27:20;100223.98;;;24.22;57.38
54924;BME280;40825;52.270;20.984;2022-08-21T00:27:42;100228.39;;;24.22;57.44
54924;BME280;40825;52.270;20.984;2022-08-21T00:28:05;100225.48;;;24.23;57.38
54924;BME280;40825;52.270;20.984;2022-08-21T00:28:27;100224.34;;;24.23;57.31
54924;BME280;40825;52.270;20.984;2022-08-21T00:28:49;100227.06;;;24.25;57.40
54924;BME280;40825;52.270;20.984;2022-08-21T00:29:11;100225.64;;;24.25;57.33
54924;BME280;40825;52.270;20.984;2022-08-21T00:29:32;100224.27;;;24.26;57.35
54924;BME280;40825;52.270;20.984;2022-08-21T00:29:54;100224.14;;;24.26;57.27
54924;BME280;40825;52.270;20.984;2022-08-21T00:30:17;100220.56;;;24.25;57.31
54924;BME280;40825;52.270;20.984;2022-08-21T00:30:40;100223.23;;;24.24;57.33
54924;BME280;40825;52.270;20.984;2022-08-21T00:31:02;100221.01;;;24.24;57.31
54924;BME280;40825;52.270;20.984;2022-08-21T00:31:25;100220.13;;;24.24;57.30
54924;BME280;40825;52.270;20.984;2022-08-21T00:31:46;100222.36;;;24.23;57.27
54924;BME280;40825;52.270;20.984;2022-08-21T00:32:08;100221.00;;;24.24;57.35
54924;BME280;40825;52.270;20.984;2022-08-21T00:32:29;100219.16;;;24.25;57.29
54924;BME280;40825;52.270;20.984;2022-08-21T00:32:53;100220.02;;;24.25;57.31
54924;BME280;40825;52.270;20.984;2022-08-21T00:33:15;100219.94;;;24.26;57.34
54924;BME280;40825;52.270;20.984;2022-08-21T00:33:36;100220.43;;;24.27;57.41
54924;BME280;40825;52.270;20.984;2022-08-21T00:33:58;100218.67;;;24.27;57.39
54924;BME280;40825;52.270;20.984;2022-08-21T00:34:19;100223.20;;;24.28;57.38
54924;BME280;40825;52.270;20.984;2022-08-21T00:34:41;100220.59;;;24.27;57.26
54924;BME280;40825;52.270;20.984;2022-08-21T00:35:04;100220.76;;;24.27;57.33
54924;BME280;40825;52.270;20.984;2022-08-21T00:35:30;100220.66;;;24.27;57.30
54924;BME280;40825;52.270;20.984;2022-08-21T00:35:53;100218.66;;;24.25;57.29
54924;BME280;40825;52.270;20.984;2022-08-21T00:36:15;100220.13;;;24.24;57.30
54924;BME280;40825;52.270;20.984;2022-08-21T00:36:37;100217.67;;;24.24;57.45
54924;BME280;40825;52.270;20.984;2022-08-21T00:36:59;100219.96;;;24.24;57.41
54924;BME280;40825;52.270;20.984;2022-08-21T00:37:21;100217.52;;;24.25;57.46
54924;BME280;40825;52.270;20.984;2022-08-21T00:37:43;100220.22;;;24.26;57.42
54924;BME280;40825;52.270;20.984;2022-08-21T00:38:07;100218.95;;;24.27;57.61
54924;BME280;40825;52.270;20.984;2022-08-21T00:38:29;100219.32;;;24.29;57.52
54924;BME280;40825;52.270;20.984;2022-08-21T00:38:50;100215.73;;;24.29;57.67
54924;BME280;40825;52.270;20.984;2022-08-21T00:39:12;100215.31;;;24.31;57.59
54924;BME280;40825;52.270;20.984;2022-08-21T00:39:33;100217.93;;;24.33;57.68
54924;BME280;40825;52.270;20.984;2022-08-21T00:39:55;100216.16;;;24.34;57.68
54924;BME280;40825;52.270;20.984;2022-08-21T00:40:21;100211.13;;;24.35;57.58
54924;BME280;40825;52.270;20.984;2022-08-21T00:41:05;100211.67;;;24.35;57.47
54924;BME280;40825;52.270;20.984;2022-08-21T00:41:27;100212.19;;;24.28;57.47
54924;BME280;40825;52.270;20.984;2022-08-21T00:41:49;100210.41;;;24.26;57.62
54924;BME280;40825;52.270;20.984;2022-08-21T00:42:11;100207.63;;;24.25;57.62
54924;BME280;40825;52.270;20.984;2022-08-21T00:42:36;100208.23;;;24.26;57.68
54924;BME280;40825;52.270;20.984;2022-08-21T00:42:58;100205.98;;;24.26;57.68
54924;BME280;40825;52.270;20.984;2022-08-21T00:43:25;100207.65;;;24.27;57.67
54924;BME280;40825;52.270;20.984;2022-08-21T00:43:47;100207.82;;;24.27;57.61
54924;BME280;40825;52.270;20.984;2022-08-21T00:44:13;100205.59;;;24.27;57.69
54924;BME280;40825;52.270;20.984;2022-08-21T00:44:35;100210.17;;;24.27;57.68
54924;BME280;40825;52.270;20.984;2022-08-21T00:44:57;100205.31;;;24.27;57.72
54924;BME280;40825;52.270;20.984;2022-08-21T00:45:21;100206.26;;;24.27;57.63
54924;BME280;40825;52.270;20.984;2022-08-21T00:45:42;100205.77;;;24.26;57.65
54924;BME280;40825;52.270;20.984;2022-08-21T00:46:05;100206.77;;;24.25;57.68
54924;BME280;40825;52.270;20.984;2022-08-21T00:46:27;100207.30;;;24.24;57.72
54924;BME280;40825;52.270;20.984;2022-08-21T00:46:49;100203.45;;;24.23;57.70
54924;BME280;40825;52.270;20.984;2022-08-21T00:47:11;100205.80;;;24.23;57.78
54924;BME280;40825;52.270;20.984;2022-08-21T00:47:33;100204.45;;;24.22;57.83
54924;BME280;40825;52.270;20.984;2022-08-21T00:47:55;100204.59;;;24.23;57.88
54924;BME280;40825;52.270;20.984;2022-08-21T00:48:18;100207.20;;;24.25;57.81
54924;BME280;40825;52.270;20.984;2022-08-21T00:48:42;100205.13;;;24.24;57.82
54924;BME280;40825;52.270;20.984;2022-08-21T00:49:05;100203.70;;;24.25;57.80
54924;BME280;40825;52.270;20.984;2022-08-21T00:49:30;100206.55;;;24.25;57.77
54924;BME280;40825;52.270;20.984;2022-08-21T00:49:52;100208.00;;;24.26;58.03
54924;BME280;40825;52.270;20.984;2022-08-21T00:50:13;100205.26;;;24.28;58.07
54924;BME280;40825;52.270;20.984;2022-08-21T00:50:41;100207.47;;;24.30;58.05
54924;BME280;40825;52.270;20.984;2022-08-21T00:51:19;100206.77;;;24.29;57.92
54924;BME280;40825;52.270;20.984;2022-08-21T00:52:01;100207.33;;;24.16;57.94
54924;BME280;40825;52.270;20.984;2022-08-21T00:52:28;100206.88;;;24.13;58.06
54924;BME280;40825;52.270;20.984;2022-08-21T00:52:51;100205.38;;;24.11;57.97
54924;BME280;40825;52.270;20.984;2022-08-21T00:53:14;100206.56;;;24.10;58.11
54924;BME280;40825;52.270;20.984;2022-08-21T00:53:38;100206.84;;;24.11;58.13
54924;BME280;40825;52.270;20.984;2022-08-21T00:54:01;100203.20;;;24.10;58.05
54924;BME280;40825;52.270;20.984;2022-08-21T00:54:25;100208.42;;;24.12;58.17
54924;BME280;40825;52.270;20.984;2022-08-21T00:54:49;100203.23;;;24.13;58.05
54924;BME280;40825;52.270;20.984;2022-08-21T00:55:13;100201.81;;;24.12;58.13
54924;BME280;40825;52.270;20.984;2022-08-21T00:55:36;100203.38;;;24.13;58.13
54924;BME280;40825;52.270;20.984;2022-08-21T00:55:59;100202.23;;;24.13;58.22
54924;BME280;40825;52.270;20.984;2022-08-21T00:56:24;100205.61;;;24.13;58.19
54924;BME280;40825;52.270;20.984;2022-08-21T00:56:48;100203.87;;;24.13;58.18
54924;BME280;40825;52.270;20.984;2022-08-21T00:57:19;100204.47;;;24.13;58.13
54924;BME280;40825;52.270;20.984;2022-08-21T00:57:44;100202.38;;;24.09;58.10
54924;BME280;40825;52.270;20.984;2022-08-21T00:58:09;100198.59;;;24.06;58.05
54924;BME280;40825;52.270;20.984;2022-08-21T00:58:32;100201.65;;;24.06;58.05
54924;BME280;40825;52.270;20.984;2022-08-21T00:58:57;100201.80;;;24.04;58.19
54924;BME280;40825;52.270;20.984;2022-08-21T00:59:22;100200.62;;;24.03;58.10
54924;BME280;40825;52.270;20.984;2022-08-21T00:59:48;100199.36;;;24.03;58.13
54924;BME280;40825;52.270;20.984;2022-08-21T01:00:16;100198.76;;;24.02;58.16
54924;BME280;40825;52.270;20.984;2022-08-21T01:00:41;100199.55;;;24.00;58.08
54924;BME280;40825;52.270;20.984;2022-08-21T01:01:06;100199.02;;;23.98;58.23
54924;BME280;40825;52.270;20.984;2022-08-21T01:01:28;100199.23;;;23.98;58.27
54924;BME280;40825;52.270;20.984;2022-08-21T01:01:50;100199.61;;;23.98;58.43
54924;BME280;40825;52.270;20.984;2022-08-21T01:02:13;100200.26;;;24.00;58.41
54924;BME280;40825;52.270;20.984;2022-08-21T01:02:34;100201.77;;;24.01;58.33
54924;BME280;40825;52.270;20.984;2022-08-21T01:02:57;100202.11;;;24.01;58.42
54924;BME280;40825;52.270;20.984;2022-08-21T01:03:22;100198.38;;;24.02;58.34
54924;BME280;40825;52.270;20.984;2022-08-21T01:03:46;100200.17;;;24.02;58.42
54924;BME280;40825;52.270;20.984;2022-08-21T01:04:08;100199.70;;;24.02;58.46
54924;BME280;40825;52.270;20.984;2022-08-21T01:04:29;100201.00;;;24.03;58.42
54924;BME280;40825;52.270;20.984;2022-08-21T01:04:51;100201.80;;;24.03;58.39
54924;BME280;40825;52.270;20.984;2022-08-21T01:05:13;100205.79;;;24.04;58.53
54924;BME280;40825;52.270;20.984;2022-08-21T01:05:36;100200.39;;;24.05;58.42
54924;BME280;40825;52.270;20.984;2022-08-21T01:05:58;100201.10;;;24.05;58.27
54924;BME280;40825;52.270;20.984;2022-08-21T01:06:20;100201.83;;;24.06;58.40
54924;BME280;40825;52.270;20.984;2022-08-21T01:06:42;100203.71;;;24.06;58.50
54924;BME280;40825;52.270;20.984;2022-08-21T01:07:04;100199.52;;;24.05;58.45
54924;BME280;40825;52.270;20.984;2022-08-21T01:07:26;100201.27;;;24.06;58.40
54924;BME280;40825;52.270;20.984;2022-08-21T01:07:48;100201.65;;;24.06;58.44
54924;BME280;40825;52.270;20.984;2022-08-21T01:08:10;100200.45;;;24.05;58.47
54924;BME280;40825;52.270;20.984;2022-08-21T01:08:32;100198.81;;;24.05;58.53
54924;BME280;40825;52.270;20.984;2022-08-21T01:08:54;100198.54;;;24.04;58.47
54924;BME280;40825;52.270;20.984;2022-08-21T01:09:16;100199.40;;;24.03;58.49
54924;BME280;40825;52.270;20.984;2022-08-21T01:09:39;100196.67;;;24.04;58.42
54924;BME280;40825;52.270;20.984;2022-08-21T01:10:03;100196.36;;;24.03;58.55
54924;BME280;40825;52.270;20.984;2022-08-21T01:10:26;100196.41;;;24.02;58.51
54924;BME280;40825;52.270;20.984;2022-08-21T01:10:53;100192.68;;;24.00;58.53
54924;BME280;40825;52.270;20.984;2022-08-21T01:11:15;100193.83;;;23.98;58.49
54924;BME280;40825;52.270;20.984;2022-08-21T01:11:37;100192.21;;;23.97;58.65
54924;BME280;40825;52.270;20.984;2022-08-21T01:11:59;100194.60;;;23.97;58.60
54924;BME280;40825;52.270;20.984;2022-08-21T01:12:21;100190.79;;;23.97;58.68
54924;BME280;40825;52.270;20.984;2022-08-21T01:12:43;100192.05;;;23.97;58.58
54924;BME280;40825;52.270;20.984;2022-08-21T01:13:06;100191.27;;;23.98;58.66
54924;BME280;40825;52.270;20.984;2022-08-21T01:13:32;100188.28;;;23.98;58.58
54924;BME280;40825;52.270;20.984;2022-08-21T01:13:55;100190.46;;;23.97;58.58
54924;BME280;40825;52.270;20.984;2022-08-21T01:14:17;100191.55;;;23.97;58.52
54924;BME280;40825;52.270;20.984;2022-08-21T01:14:41;100190.70;;;23.96;58.54
54924;BME280;40825;52.270;20.984;2022-08-21T01:15:05;100189.81;;;23.97;58.48
54924;BME280;40825;52.270;20.984;2022-08-21T01:15:32;100191.02;;;23.96;58.44
54924;BME280;40825;52.270;20.984;2022-08-21T01:15:56;100190.81;;;23.94;58.42
54924;BME280;40825;52.270;20.984;2022-08-21T01:16:21;100190.14;;;23.92;58.41
54924;BME280;40825;52.270;20.984;2022-08-21T01:16:46;100188.82;;;23.91;58.47
54924;BME280;40825;52.270;20.984;2022-08-21T01:17:11;100189.05;;;23.91;58.54
54924;BME280;40825;52.270;20.984;2022-08-21T01:17:35;100188.94;;;23.89;58.55
54924;BME280;40825;52.270;20.984;2022-08-21T01:17:57;100186.98;;;23.89;58.62
54924;BME280;40825;52.270;20.984;2022-08-21T01:18:19;100184.98;;;23.89;58.61
54924;BME280;40825;52.270;20.984;2022-08-21T01:18:43;100185.40;;;23.90;58.54
54924;BME280;40825;52.270;20.984;2022-08-21T01:19:07;100186.60;;;23.89;58.55
54924;BME280;40825;52.270;20.984;2022-08-21T01:19:30;100186.32;;;23.89;58.52
54924;BME280;40825;52.270;20.984;2022-08-21T01:19:53;100182.14;;;23.89;58.56
54924;BME280;40825;52.270;20.984;2022-08-21T01:20:18;100185.41;;;23.87;58.52
54924;BME280;40825;52.270;20.984;2022-08-21T01:20:58;100186.13;;;23.88;58.61
54924;BME280;40825;52.270;20.984;2022-08-21T01:21:23;100184.31;;;23.84;58.64
54924;BME280;40825;52.270;20.984;2022-08-21T01:21:45;100185.85;;;23.82;58.74
54924;BME280;40825;52.270;20.984;2022-08-21T01:22:07;100185.14;;;23.81;58.90
54924;BME280;40825;52.270;20.984;2022-08-21T01:22:29;100185.73;;;23.83;59.08
54924;BME280;40825;52.270;20.984;2022-08-21T01:23:00;100185.34;;;23.85;58.99
54924;BME280;40825;52.270;20.984;2022-08-21T01:23:25;100185.67;;;23.84;58.81
54924;BME280;40825;52.270;20.984;2022-08-21T01:23:51;100184.59;;;23.82;58.85
54924;BME280;40825;52.270;20.984;2022-08-21T01:24:13;100183.77;;;23.82;58.84
54924;BME280;40825;52.270;20.984;2022-08-21T01:24:35;100183.02;;;23.80;58.85
54924;BME280;40825;52.270;20.984;2022-08-21T01:24:57;100184.89;;;23.80;58.85
54924;BME280;40825;52.270;20.984;2022-08-21T01:25:19;100184.08;;;23.78;58.81
54924;BME280;40825;52.270;20.984;2022-08-21T01:25:53;100181.35;;;23.73;58.91
54924;BME280;40825;52.270;20.984;2022-08-21T01:26:17;100183.12;;;23.71;59.05
54924;BME280;40825;52.270;20.984;2022-08-21T01:26:40;100179.84;;;23.70;59.04
54924;BME280;40825;52.270;20.984;2022-08-21T01:27:05;100181.91;;;23.69;59.02
54924;BME280;40825;52.270;20.984;2022-08-21T01:27:27;100182.36;;;23.69;59.11
54924;BME280;40825;52.270;20.984;2022-08-21T01:27:51;100185.52;;;23.70;59.05
54924;BME280;40825;52.270;20.984;2022-08-21T01:28:15;100178.64;;;23.69;59.12
54924;BME280;40825;52.270;20.984;2022-08-21T01:28:48;100182.04;;;23.69;59.09
54924;BME280;40825;52.270;20.984;2022-08-21T01:29:59;100183.01;;;23.62;59.04
54924;BME280;40825;52.270;20.984;2022-08-21T01:30:27;100185.50;;;23.59;59.21
54924;BME280;40825;52.270;20.984;2022-08-21T01:30:51;100182.70;;;23.60;59.27
54924;BME280;40825;52.270;20.984;2022-08-21T01:31:36;100181.77;;;23.60;59.25
54924;BME280;40825;52.270;20.984;2022-08-21T01:31:58;100179.61;;;23.59;59.17
54924;BME280;40825;52.270;20.984;2022-08-21T01:32:20;100184.73;;;23.58;59.44
54924;BME280;40825;52.270;20.984;2022-08-21T01:32:45;100183.90;;;23.60;59.60
54924;BME280;40825;52.270;20.984;2022-08-21T01:33:08;100184.20;;;23.63;59.45
54924;BME280;40825;52.270;20.984;2022-08-21T01:33:30;100182.12;;;23.64;59.54
54924;BME280;40825;52.270;20.984;2022-08-21T01:33:52;100180.41;;;23.66;59.45
54924;BME280;40825;52.270;20.984;2022-08-21T01:34:14;100181.84;;;23.67;59.48
54924;BME280;40825;52.270;20.984;2022-08-21T01:34:41;100180.02;;;23.68;59.35
54924;BME280;40825;52.270;20.984;2022-08-21T01:35:05;100177.63;;;23.68;59.25
54924;BME280;40825;52.270;20.984;2022-08-21T01:35:28;100179.20;;;23.68;59.32
54924;BME280;40825;52.270;20.984;2022-08-21T01:35:50;100180.36;;;23.68;59.34
54924;BME280;40825;52.270;20.984;2022-08-21T01:36:12;100179.52;;;23.68;59.38
54924;BME280;40825;52.270;20.984;2022-08-21T01:36:34;100175.92;;;23.69;59.38
54924;BME280;40825;52.270;20.984;2022-08-21T01:36:55;100174.66;;;23.70;59.36
54924;BME280;40825;52.270;20.984;2022-08-21T01:37:19;100174.48;;;23.71;59.34
54924;BME280;40825;52.270;20.984;2022-08-21T01:37:42;100175.79;;;23.72;59.43
54924;BME280;40825;52.270;20.984;2022-08-21T01:38:04;100175.58;;;23.71;59.46
54924;BME280;40825;52.270;20.984;2022-08-21T01:38:26;100172.38;;;23.71;59.46
54924;BME280;40825;52.270;20.984;2022-08-21T01:38:48;100175.59;;;23.71;59.40
54924;BME280;40825;52.270;20.984;2022-08-21T01:39:10;100176.45;;;23.71;59.49
54924;BME280;40825;52.270;20.984;2022-08-21T01:39:33;100171.88;;;23.72;59.46
54924;BME280;40825;52.270;20.984;2022-08-21T01:39:55;100170.66;;;23.72;59.47
54924;BME280;40825;52.270;20.984;2022-08-21T01:40:17;100171.83;;;23.72;59.45
54924;BME280;40825;52.270;20.984;2022-08-21T01:40:39;100170.08;;;23.71;59.38
54924;BME280;40825;52.270;20.984;2022-08-21T01:41:00;100169.04;;;23.71;59.43
54924;BME280;40825;52.270;20.984;2022-08-21T01:41:22;100171.61;;;23.71;59.41
54924;BME280;40825;52.270;20.984;2022-08-21T01:41:43;100169.75;;;23.71;59.34
54924;BME280;40825;52.270;20.984;2022-08-21T01:42:06;100167.84;;;23.72;59.48
54924;BME280;40825;52.270;20.984;2022-08-21T01:42:28;100170.05;;;23.72;59.40
54924;BME280;40825;52.270;20.984;2022-08-21T01:42:49;100170.66;;;23.72;59.44
54924;BME280;40825;52.270;20.984;2022-08-21T01:43:11;100171.94;;;23.71;59.44
54924;BME280;40825;52.270;20.984;2022-08-21T01:43:33;100168.08;;;23.69;59.44
54924;BME280;40825;52.270;20.984;2022-08-21T01:43:54;100166.83;;;23.68;59.52
54924;BME280;40825;52.270;20.984;2022-08-21T01:44:16;100166.67;;;23.67;59.43
54924;BME280;40825;52.270;20.984;2022-08-21T01:44:41;100166.14;;;23.65;59.46
54924;BME280;40825;52.270;20.984;2022-08-21T01:45:05;100166.65;;;23.63;59.54
54924;BME280;40825;52.270;20.984;2022-08-21T01:45:27;100167.59;;;23.62;59.48
54924;BME280;40825;52.270;20.984;2022-08-21T01:45:49;100164.92;;;23.61;59.57
54924;BME280;40825;52.270;20.984;2022-08-21T01:46:11;100163.86;;;23.59;59.61
54924;BME280;40825;52.270;20.984;2022-08-21T01:46:34;100164.02;;;23.60;59.67
54924;BME280;40825;52.270;20.984;2022-08-21T01:46:58;100166.52;;;23.59;59.64
54924;BME280;40825;52.270;20.984;2022-08-21T01:47:20;100166.91;;;23.59;59.70
54924;BME280;40825;52.270;20.984;2022-08-21T01:47:43;100166.98;;;23.58;59.72
54924;BME280;40825;52.270;20.984;2022-08-21T01:48:05;100162.11;;;23.58;59.72
54924;BME280;40825;52.270;20.984;2022-08-21T01:48:27;100164.79;;;23.59;59.79
54924;BME280;40825;52.270;20.984;2022-08-21T01:48:49;100162.83;;;23.59;59.91
54924;BME280;40825;52.270;20.984;2022-08-21T01:49:10;100164.06;;;23.60;59.77
54924;BME280;40825;52.270;20.984;2022-08-21T01:49:32;100166.38;;;23.62;59.90
54924;BME280;40825;52.270;20.984;2022-08-21T01:49:53;100164.66;;;23.62;59.84
54924;BME280;40825;52.270;20.984;2022-08-21T01:50:18;100164.70;;;23.63;59.92
54924;BME280;40825;52.270;20.984;2022-08-21T01:50:40;100164.92;;;23.63;59.82
54924;BME280;40825;52.270;20.984;2022-08-21T01:51:03;100164.79;;;23.63;59.99
54924;BME280;40825;52.270;20.984;2022-08-21T01:51:25;100162.61;;;23.63;59.97
54924;BME280;40825;52.270;20.984;2022-08-21T01:51:47;100164.90;;;23.64;59.92
54924;BME280;40825;52.270;20.984;2022-08-21T01:52:08;100164.95;;;23.65;59.98
54924;BME280;40825;52.270;20.984;2022-08-21T01:52:30;100163.46;;;23.66;60.01
54924;BME280;40825;52.270;20.984;2022-08-21T01:52:52;100166.85;;;23.67;59.97
54924;BME280;40825;52.270;20.984;2022-08-21T01:53:13;100166.52;;;23.68;59.96
54924;BME280;40825;52.270;20.984;2022-08-21T01:53:37;100164.53;;;23.69;60.02
54924;BME280;40825;52.270;20.984;2022-08-21T01:53:59;100166.66;;;23.69;59.91
54924;BME280;40825;52.270;20.984;2022-08-21T01:54:22;100165.07;;;23.70;60.12
54924;BME280;40825;52.270;20.984;2022-08-21T01:54:43;100167.02;;;23.71;60.12
54924;BME280;40825;52.270;20.984;2022-08-21T01:55:07;100166.91;;;23.72;60.14
54924;BME280;40825;52.270;20.984;2022-08-21T01:55:29;100166.42;;;23.72;60.12
54924;BME280;40825;52.270;20.984;2022-08-21T01:55:51;100164.02;;;23.72;60.13
54924;BME280;40825;52.270;20.984;2022-08-21T01:56:15;100164.48;;;23.71;60.23
54924;BME280;40825;52.270;20.984;2022-08-21T01:56:43;100169.05;;;23.71;60.04
54924;BME280;40825;52.270;20.984;2022-08-21T01:57:06;100163.02;;;23.69;60.23
54924;BME280;40825;52.270;20.984;2022-08-21T01:57:28;100162.65;;;23.67;60.21
54924;BME280;40825;52.270;20.984;2022-08-21T01:57:50;100162.80;;;23.66;60.25
54924;BME280;40825;52.270;20.984;2022-08-21T01:58:12;100165.75;;;23.66;60.20
54924;BME280;40825;52.270;20.984;2022-08-21T01:58:33;100163.58;;;23.66;60.20
54924;BME280;40825;52.270;20.984;2022-08-21T01:58:58;100163.20;;;23.67;60.37
54924;BME280;40825;52.270;20.984;2022-08-21T01:59:21;100161.99;;;23.66;60.37
54924;BME280;40825;52.270;20.984;2022-08-21T01:59:44;100163.09;;;23.66;60.34
54924;BME280;40825;52.270;20.984;2022-08-21T02:00:08;100164.83;;;23.66;60.39
54924;BME280;40825;52.270;20.984;2022-08-21T02:00:31;100162.55;;;23.64;60.40
54924;BME280;40825;52.270;20.984;2022-08-21T02:00:53;100162.71;;;23.64;60.38
54924;BME280;40825;52.270;20.984;2022-08-21T02:01:15;100162.88;;;23.64;60.36